createdAt,value
2022-11-05T00:01:09.109Z,102216.13
2022-11-05T00:06:15.280Z,102231.06
2022-11-05T00:11:18.964Z,102234.78
2022-11-05T00:16:22.515Z,102213.91
2022-11-05T00:21:27.722Z,102222.28
2022-11-05T00:26:32.718Z,102212.66
2022-11-05T00:31:36.305Z,102217.13
2022-11-05T00:36:41.503Z,102222.41
2022-11-05T00:41:45.273Z,102228.44
2022-11-05T00:46:48.794Z,102228.81
2022-11-05T00:51:53.961Z,102228.19
2022-11-05T00:57:01.954Z,102232.94
2022-11-05T01:02:07.980Z,102217.41
2022-11-05T01:07:13.196Z,102217.25
2022-11-05T01:12:16.745Z,102217.56
2022-11-05T01:17:20.291Z,102223.03
2022-11-05T01:22:25.581Z,102216.19
2022-11-05T01:27:29.084Z,102215.34
2022-11-05T01:32:32.646Z,102210.38
2022-11-05T01:37:37.870Z,102221.91
2022-11-05T01:42:41.533Z,102214.34
2022-11-05T01:47:56.270Z,102219.06
2022-11-05T01:53:09.303Z,102216.91
2022-11-05T01:58:17.180Z,102226.84
2022-11-05T02:03:20.876Z,102232.28
2022-11-05T02:08:37.700Z,102221.13
2022-11-05T02:13:41.755Z,102223.94
2022-11-05T02:18:54.765Z,102229.59
2022-11-05T02:24:31.998Z,102230.47
2022-11-05T02:30:09.038Z,102239.50
2022-11-05T02:35:27.712Z,102251.03
2022-11-05T02:40:36.981Z,102252.03
2022-11-05T02:45:49.447Z,102264.53
2022-11-05T02:51:01.364Z,102271.69
2022-11-05T02:56:10.108Z,102278.78
2022-11-05T03:01:14.178Z,102272.66
2022-11-05T03:06:45.260Z,102268.41
2022-11-05T03:12:00.273Z,102256.28
2022-11-05T03:17:13.414Z,102253.78
2022-11-05T03:22:24.290Z,102249.47
2022-11-05T03:27:32.134Z,102256.63
2022-11-05T03:32:39.336Z,102249.75
2022-11-05T03:37:48.051Z,102239.25
2022-11-05T03:42:56.281Z,102241.16
2022-11-05T03:48:02.541Z,102235.94
2022-11-05T03:53:15.138Z,102238.63
2022-11-05T03:58:22.861Z,102236.13
2022-11-05T04:03:26.422Z,102232.69
2022-11-05T04:08:31.594Z,102230.97
2022-11-05T04:13:35.365Z,102228.38
2022-11-05T04:18:38.961Z,102233.63
2022-11-05T04:23:44.174Z,102230.16
2022-11-05T04:28:47.740Z,102241.56
2022-11-05T04:33:51.309Z,102239.81
2022-11-05T04:38:56.497Z,102237.25
2022-11-05T04:44:00.112Z,102225.00
2022-11-05T04:49:03.661Z,102211.13
2022-11-05T04:54:08.869Z,102226.03
2022-11-05T04:59:12.421Z,102225.19
2022-11-05T05:04:15.959Z,102234.84
2022-11-05T05:09:21.130Z,102230.47
2022-11-05T05:14:24.673Z,102240.09
2022-11-05T05:19:28.539Z,102236.63
2022-11-05T05:24:33.751Z,102248.84
2022-11-05T05:29:37.337Z,102246.19
2022-11-05T05:34:40.896Z,102247.00
2022-11-05T05:39:46.223Z,102249.56
2022-11-05T05:44:49.846Z,102246.91
2022-11-05T05:49:53.386Z,102249.47
2022-11-05T05:54:58.538Z,102251.22
2022-11-05T06:00:02.104Z,102233.75
2022-11-05T06:05:06.231Z,102238.97
2022-11-05T06:10:11.817Z,102227.59
2022-11-05T06:15:15.504Z,102218.91
2022-11-05T06:20:19.316Z,102207.50
2022-11-05T06:25:24.887Z,102208.56
2022-11-05T06:30:28.563Z,102198.06
2022-11-05T06:35:32.864Z,102183.25
2022-11-05T06:40:38.044Z,102178.88
2022-11-05T06:45:41.603Z,102168.47
2022-11-05T06:50:46.417Z,102162.41
2022-11-05T06:55:51.604Z,102172.03
2022-11-05T07:00:55.195Z,102170.38
2022-11-05T07:06:00.473Z,102178.19
2022-11-05T07:11:06.277Z,102178.25
2022-11-05T07:16:09.992Z,102159.03
2022-11-05T07:21:13.535Z,102154.69
2022-11-05T07:26:18.726Z,102152.06
2022-11-05T07:31:22.337Z,102157.31
2022-11-05T07:36:25.995Z,102160.84
2022-11-05T07:41:31.221Z,102140.72
2022-11-05T07:46:34.754Z,102121.53
2022-11-05T07:51:38.302Z,102127.63
2022-11-05T07:56:43.456Z,102128.50
2022-11-05T08:01:47.200Z,102125.94
2022-11-05T08:06:50.828Z,102149.50
2022-11-05T08:11:59.907Z,102143.44
2022-11-05T08:17:06.318Z,102133.84
2022-11-05T08:22:09.907Z,102123.28
2022-11-05T08:27:15.134Z,102091.88
2022-11-05T08:32:18.694Z,102083.13
2022-11-05T08:37:22.941Z,102081.41
2022-11-05T08:42:28.160Z,102071.00
2022-11-05T08:47:31.680Z,102057.06
2022-11-05T08:52:35.252Z,102072.75
2022-11-05T08:57:40.412Z,102084.28
2022-11-05T09:02:44.115Z,102094.75
2022-11-05T09:07:47.738Z,102092.97
2022-11-05T09:12:52.891Z,102090.31
2022-11-05T09:17:56.926Z,102092.88
2022-11-05T09:23:00.646Z,102070.19
2022-11-05T09:28:16.730Z,102055.31
2022-11-05T09:33:22.517Z,102043.09
2022-11-05T09:38:26.065Z,102041.28
2022-11-05T09:43:35.573Z,102051.69
2022-11-05T09:48:42.109Z,102041.28
2022-11-05T09:53:47.125Z,102043.00
2022-11-05T09:58:57.980Z,102049.06
2022-11-05T10:04:08.145Z,102051.75
2022-11-05T10:09:20.031Z,102058.66
2022-11-05T10:14:29.311Z,102048.19
2022-11-05T10:19:42.214Z,102027.25
2022-11-05T10:24:47.549Z,102026.28
2022-11-05T10:29:52.881Z,102026.25
2022-11-05T10:34:59.657Z,102008.78
2022-11-05T10:40:03.314Z,102003.63
2022-11-05T10:45:17.649Z,101998.31
2022-11-05T10:50:24.310Z,102000.91
2022-11-05T10:55:30.042Z,101996.50
2022-11-05T11:00:35.409Z,101968.53
2022-11-05T11:05:40.837Z,101972.03
2022-11-05T11:10:51.390Z,101981.63
2022-11-05T11:16:13.703Z,101976.41
2022-11-05T11:21:19.587Z,101964.97
2022-11-05T11:26:24.583Z,101966.69
2022-11-05T11:31:32.132Z,101968.44
2022-11-05T11:36:39.989Z,101960.59
2022-11-05T11:41:47.014Z,101946.63
2022-11-05T11:46:54.313Z,101940.53
2022-11-05T11:52:12.621Z,101916.00
2022-11-05T11:57:24.223Z,101910.81
2022-11-05T12:03:17.684Z,101905.50
2022-11-05T12:08:47.050Z,101918.59
2022-11-05T12:14:13.819Z,101916.00
2022-11-05T12:19:32.226Z,101908.16
2022-11-05T12:24:52.732Z,101924.63
2022-11-05T12:30:03.801Z,101931.59
2022-11-05T12:35:21.377Z,101923.72
2022-11-05T12:40:55.317Z,101928.84
2022-11-05T12:46:07.249Z,101924.41
2022-11-05T12:51:22.575Z,101930.50
2022-11-05T12:56:32.603Z,101915.69
2022-11-05T13:01:40.487Z,101914.00
2022-11-05T13:06:51.622Z,101920.13
2022-11-05T13:11:58.538Z,101925.34
2022-11-05T13:17:06.189Z,101934.97
2022-11-05T13:22:20.913Z,101927.97
2022-11-05T13:27:42.665Z,101914.00
2022-11-05T13:32:50.858Z,101907.78
2022-11-05T13:38:00.185Z,101909.56
2022-11-05T13:43:44.531Z,101907.66
2022-11-05T13:49:09.657Z,101906.81
2022-11-05T13:54:47.921Z,101916.31
2022-11-05T14:00:06.389Z,101905.84
2022-11-05T14:05:24.519Z,101899.63
2022-11-05T14:10:36.308Z,101893.50
2022-11-05T14:15:52.788Z,101888.44
2022-11-05T14:21:01.314Z,101892.72
2022-11-05T14:26:17.209Z,101890.97
2022-11-05T14:31:54.529Z,101882.16
2022-11-05T14:37:24.019Z,101877.03
2022-11-05T14:42:29.609Z,101876.25
2022-11-05T14:47:38.009Z,101864.09
2022-11-05T14:52:51.149Z,101869.28
2022-11-05T14:58:23.932Z,101877.09
2022-11-05T15:03:54.693Z,101877.00
2022-11-05T15:09:24.557Z,101874.47
2022-11-05T15:14:32.570Z,101876.97
2022-11-05T15:19:39.289Z,101862.06
2022-11-05T15:24:43.941Z,101841.22
2022-11-05T15:29:47.541Z,101849.84
2022-11-05T15:34:56.823Z,101850.56
2022-11-05T15:40:00.396Z,101836.47
2022-11-05T15:45:04.000Z,101845.91
2022-11-05T15:50:16.678Z,101845.81
2022-11-05T15:55:21.676Z,101866.66
2022-11-05T16:00:27.155Z,101875.38
2022-11-05T16:05:35.301Z,101891.84
2022-11-05T16:10:40.198Z,101894.31
2022-11-05T16:15:54.813Z,101909.13
2022-11-05T16:21:04.873Z,101902.78
2022-11-05T16:26:48.030Z,101899.94
2022-11-05T16:31:52.188Z,101904.88
2022-11-05T16:36:59.979Z,101901.00
2022-11-05T16:42:20.598Z,101898.13
2022-11-05T16:47:24.911Z,101902.06
2022-11-05T16:52:30.530Z,101887.66
2022-11-05T16:57:34.211Z,101873.44
2022-11-05T17:02:37.920Z,101867.22
2022-11-05T17:07:43.202Z,101854.94
2022-11-05T17:12:47.419Z,101857.22
2022-11-05T17:17:51.753Z,101860.41
2022-11-05T17:22:57.731Z,101856.22
2022-11-05T17:28:00.554Z,101834.13
2022-11-05T17:33:04.292Z,101844.06
2022-11-05T17:38:09.978Z,101846.22
2022-11-05T17:43:13.857Z,101828.88
2022-11-05T17:48:18.544Z,101825.09
2022-11-05T17:53:23.825Z,101814.63
2022-11-05T17:58:27.366Z,101819.97
2022-11-05T18:03:32.391Z,101826.34
2022-11-05T18:08:37.545Z,101818.19
2022-11-05T18:13:41.101Z,101817.94
2022-11-05T18:18:44.659Z,101817.28
2022-11-05T18:23:49.859Z,101815.50
2022-11-05T18:28:53.411Z,101809.53
2022-11-05T18:33:58.843Z,101803.38
2022-11-05T18:39:05.276Z,101792.91
2022-11-05T18:44:08.881Z,101792.09
2022-11-05T18:49:12.427Z,101778.59
2022-11-05T18:54:17.707Z,101779.94
2022-11-05T18:59:36.670Z,101782.25
2022-11-05T19:05:00.350Z,101780.75
2022-11-05T19:10:08.689Z,101774.19
2022-11-05T19:15:12.538Z,101768.34
2022-11-05T19:20:16.212Z,101762.47
2022-11-05T19:25:21.465Z,101748.03
2022-11-05T19:30:25.102Z,101743.38
2022-11-05T19:35:28.640Z,101741.75
2022-11-05T19:40:33.853Z,101720.19
2022-11-05T19:45:44.693Z,101706.78
2022-11-05T19:50:48.919Z,101698.34
2022-11-05T19:55:54.128Z,101689.06
2022-11-05T20:00:57.678Z,101669.59
2022-11-05T20:06:03.698Z,101660.31
2022-11-05T20:11:09.184Z,101644.94
2022-11-05T20:16:21.074Z,101633.41
2022-11-05T20:21:24.619Z,101604.19
2022-11-05T20:26:30.664Z,101600.03
2022-11-05T20:31:34.201Z,101585.78
2022-11-05T20:36:39.275Z,101580.41
2022-11-05T20:41:44.485Z,101577.34
2022-11-05T20:46:48.030Z,101562.69
2022-11-05T20:51:51.610Z,101556.03
2022-11-05T20:56:56.821Z,101552.44
2022-11-05T21:02:00.474Z,101527.34
2022-11-05T21:07:04.192Z,101518.66
2022-11-05T21:12:10.720Z,101510.25
2022-11-05T21:17:14.371Z,101505.16
2022-11-05T21:22:17.993Z,101497.81
2022-11-05T21:27:23.202Z,101486.09
2022-11-05T21:32:26.736Z,101467.50
2022-11-05T21:37:30.267Z,101470.50
2022-11-05T21:42:35.472Z,101460.88
2022-11-05T21:47:38.983Z,101464.22
2022-11-05T21:52:42.513Z,101439.09
2022-11-05T21:57:48.016Z,101431.56
2022-11-05T22:02:50.927Z,101444.50
2022-11-05T22:07:54.566Z,101421.63
2022-11-05T22:12:59.716Z,101419.00
2022-11-05T22:18:03.322Z,101412.38
2022-11-05T22:23:11.109Z,101414.19
2022-11-05T22:28:16.613Z,101414.59
2022-11-05T22:33:20.207Z,101407.22
2022-11-05T22:38:23.755Z,101403.03
2022-11-05T22:43:28.927Z,101396.78
2022-11-05T22:48:33.014Z,101395.72
2022-11-05T22:53:37.419Z,101395.84
2022-11-05T22:58:42.801Z,101391.13
2022-11-05T23:03:46.276Z,101387.72
2022-11-05T23:08:49.833Z,101375.91
2022-11-05T23:13:55.251Z,101375.63
2022-11-05T23:18:58.028Z,101370.91
2022-11-05T23:24:01.568Z,101349.59
2022-11-05T23:29:06.760Z,101341.59
2022-11-05T23:34:10.304Z,101338.47
2022-11-05T23:39:13.875Z,101335.69
2022-11-05T23:44:21.680Z,101337.94
2022-11-05T23:49:25.262Z,101335.03
2022-11-05T23:54:28.849Z,101328.53
2022-11-05T23:59:34.065Z,101323.81
